createdAt,value
2017-12-22T07:21:12.395Z,23.1
2017-12-22T07:22:17.587Z,23
2017-12-22T07:23:23.080Z,22.9
2017-12-22T07:24:29.026Z,22.8
2017-12-22T07:25:34.532Z,22.8
2017-12-22T07:26:40.019Z,22.8
2017-12-22T07:27:45.852Z,22.8
2017-12-22T07:28:51.081Z,22.8
2017-12-22T07:29:56.290Z,22.8
2017-12-22T07:31:01.888Z,22.9
2017-12-22T07:32:07.416Z,22.9
2017-12-22T07:33:12.916Z,23.1
2017-12-22T07:34:18.425Z,23
2017-12-22T07:35:23.890Z,23
2017-12-22T07:36:29.744Z,22.9
2017-12-22T07:37:34.958Z,22.9
2017-12-22T07:38:40.696Z,22.8
2017-12-22T07:39:46.577Z,22.9
2017-12-22T07:40:51.773Z,22.9
2017-12-22T07:41:57.266Z,22.9
2017-12-22T07:43:02.704Z,23
2017-12-22T07:44:07.943Z,23
2017-12-22T07:45:13.427Z,23
2017-12-22T07:46:19.209Z,23.1
2017-12-22T07:47:24.703Z,23.1
2017-12-22T07:48:30.347Z,23.2
2017-12-22T07:49:35.859Z,23.2
2017-12-22T07:50:41.351Z,23.2
2017-12-22T07:51:47.094Z,23.4
2017-12-22T07:52:52.290Z,23.4
2017-12-22T07:53:57.760Z,23.4
2017-12-22T07:55:03.555Z,23.5
2017-12-22T07:56:08.714Z,23.6
2017-12-22T07:57:13.621Z,23.6
2017-12-22T07:58:19.351Z,23.6
2017-12-22T07:59:24.849Z,23.6
2017-12-22T08:00:30.262Z,23.7
2017-12-22T08:01:35.487Z,23.7
2017-12-22T08:02:40.702Z,23.7
2017-12-22T08:03:46.465Z,23.6
2017-12-22T08:04:51.958Z,23.7
2017-12-22T08:05:57.432Z,23.8
2017-12-22T08:07:02.898Z,23.8
2017-12-22T08:08:07.806Z,23.8
2017-12-22T08:09:13.031Z,23.8
2017-12-22T08:10:18.472Z,23.8
2017-12-22T08:11:23.984Z,23.9
2017-12-22T08:12:29.180Z,23.9
2017-12-22T08:13:34.117Z,23.8
2017-12-22T08:14:39.623Z,23.9
2017-12-22T08:15:45.061Z,23.9
2017-12-22T08:16:50.528Z,24
2017-12-22T08:17:55.726Z,24
2017-12-22T08:19:01.507Z,24
2017-12-22T08:20:06.991Z,24
2017-12-22T08:21:12.164Z,24
2017-12-22T08:22:17.915Z,24.1
2017-12-22T08:23:23.596Z,24.1
2017-12-22T08:24:29.487Z,24.1
2017-12-22T08:25:34.961Z,24.1
2017-12-22T08:26:40.472Z,24.1
2017-12-22T08:27:46.134Z,24.2
2017-12-22T08:28:51.648Z,24.2
2017-12-22T08:29:57.119Z,24.3
2017-12-22T08:31:02.859Z,24.2
2017-12-22T08:32:08.336Z,24.2
2017-12-22T08:33:13.537Z,24.1
2017-12-22T08:34:19.378Z,24.2
2017-12-22T08:35:24.616Z,24.2
2017-12-22T08:36:30.363Z,24.1
2017-12-22T08:37:35.564Z,24.1
2017-12-22T08:38:40.777Z,24.2
2017-12-22T08:39:46.028Z,24.3
2017-12-22T08:40:51.520Z,24.3
2017-12-22T08:41:57.134Z,24.4
2017-12-22T08:43:02.604Z,24.3
2017-12-22T08:44:08.082Z,24.2
2017-12-22T08:45:13.291Z,24.2
2017-12-22T08:46:19.070Z,24.3
2017-12-22T08:47:24.555Z,24.4
2017-12-22T08:48:30.360Z,24.3
2017-12-22T08:49:35.051Z,24.3
2017-12-22T08:50:40.262Z,24.3
2017-12-22T08:51:46.241Z,24.4
2017-12-22T08:52:51.701Z,24.4
2017-12-22T08:53:57.224Z,24.4
2017-12-22T08:55:02.866Z,24.4
2017-12-22T08:56:08.074Z,24.3
2017-12-22T08:57:13.305Z,24.4
2017-12-22T08:58:19.020Z,24.4
2017-12-22T08:59:24.514Z,24.3
2017-12-22T09:00:30.153Z,24.3
2017-12-22T09:01:35.639Z,24.3
2017-12-22T09:02:41.117Z,24.3
2017-12-22T09:03:46.870Z,24.3
2017-12-22T09:04:52.345Z,24.3
2017-12-22T09:05:57.544Z,24.3
2017-12-22T09:07:03.281Z,24.4
2017-12-22T09:08:08.502Z,24.4
2017-12-22T09:09:13.999Z,24.4
2017-12-22T09:10:19.860Z,24.5
2017-12-22T09:11:25.034Z,24.5
2017-12-22T09:12:30.580Z,24.5
2017-12-22T09:13:35.773Z,24.5
2017-12-22T09:14:41.250Z,24.6
2017-12-22T09:15:46.183Z,24.6
2017-12-22T09:16:51.355Z,24.6
2017-12-22T09:17:56.859Z,24.8
2017-12-22T09:19:02.143Z,24.6
2017-12-22T09:20:07.785Z,24.5
2017-12-22T09:21:13.279Z,24.5
2017-12-22T09:22:18.670Z,24.4
2017-12-22T09:23:24.147Z,24.5
2017-12-22T09:24:29.587Z,24.4
2017-12-22T09:25:34.866Z,24.6
2017-12-22T09:26:40.135Z,24.5
2017-12-22T09:27:45.928Z,24.4
2017-12-22T09:28:51.124Z,24.5
2017-12-22T09:29:56.628Z,24.5
2017-12-22T09:31:02.107Z,24.5
2017-12-22T09:32:07.829Z,24.6
2017-12-22T09:33:13.315Z,24.5
2017-12-22T09:34:18.495Z,24.6
2017-12-22T09:35:23.703Z,24.5
2017-12-22T09:36:29.217Z,24.6
2017-12-22T09:37:34.718Z,24.6
2017-12-22T09:38:39.915Z,24.6
2017-12-22T09:39:45.097Z,24.5
2017-12-22T09:40:50.583Z,24.6
2017-12-22T09:41:56.072Z,24.5
2017-12-22T09:43:01.546Z,24.5
2017-12-22T09:44:06.749Z,24.5
2017-12-22T09:45:12.234Z,24.5
2017-12-22T09:46:17.712Z,24.4
2017-12-22T09:47:23.265Z,24.5
2017-12-22T09:48:28.833Z,24.5
2017-12-22T09:49:34.051Z,24.5
2017-12-22T09:50:39.233Z,24.6
2017-12-22T09:51:44.155Z,24.5
2017-12-22T09:52:49.073Z,24.5
2017-12-22T09:53:54.593Z,24.5
2017-12-22T09:55:00.065Z,24.4
2017-12-22T09:56:04.702Z,24.3
2017-12-22T09:57:09.309Z,24.2
2017-12-22T09:58:14.905Z,24.2
2017-12-22T09:59:20.128Z,24.2
2017-12-22T10:00:25.837Z,24.2
2017-12-22T10:01:31.329Z,24.1
2017-12-22T10:02:36.570Z,24.1
2017-12-22T10:03:42.089Z,24.1
2017-12-22T10:04:47.578Z,24.2
2017-12-22T10:05:52.973Z,24.2
2017-12-22T10:06:58.595Z,24.2
2017-12-22T10:08:04.226Z,24.1
2017-12-22T10:09:09.709Z,24.1
2017-12-22T10:10:15.801Z,24.1
2017-12-22T10:11:21.292Z,24.1
2017-12-22T10:12:26.925Z,24.1
2017-12-22T10:13:32.115Z,24.1
2017-12-22T10:14:37.796Z,24.1
2017-12-22T10:15:42.993Z,24.1
2017-12-22T10:16:48.472Z,24.2
2017-12-22T10:17:53.955Z,24.1
2017-12-22T10:18:59.446Z,24.1
2017-12-22T10:20:04.634Z,24.1
2017-12-22T10:21:09.860Z,24.1
2017-12-22T10:22:15.307Z,24
2017-12-22T10:23:20.524Z,24
2017-12-22T10:24:26.450Z,24
2017-12-22T10:25:31.994Z,24
2017-12-22T10:26:37.494Z,23.9
2017-12-22T10:27:43.318Z,23.9
2017-12-22T10:28:48.265Z,23.9
2017-12-22T10:29:53.771Z,23.9
2017-12-22T10:30:59.554Z,24
2017-12-22T10:32:04.750Z,24
2017-12-22T10:33:10.419Z,24.1
2017-12-22T10:34:15.590Z,24.1
2017-12-22T10:35:20.769Z,24.1
2017-12-22T10:36:26.480Z,24.1
2017-12-22T10:37:31.970Z,24.1
2017-12-22T10:38:37.318Z,24.1
2017-12-22T10:39:43.047Z,24.1
2017-12-22T10:40:48.740Z,24.2
2017-12-22T10:41:54.304Z,24.2
2017-12-22T10:42:59.984Z,24.2
2017-12-22T10:44:05.193Z,24.3
2017-12-22T10:45:10.102Z,24.3
2017-12-22T10:46:15.837Z,24.4
2017-12-22T10:47:21.349Z,24.4
2017-12-22T10:48:27.301Z,24.4
2017-12-22T10:49:32.785Z,24.3
2017-12-22T10:50:37.989Z,24.3
2017-12-22T10:51:42.857Z,24.4
2017-12-22T10:52:48.352Z,24.4
2017-12-22T10:53:53.579Z,24.3
2017-12-22T10:54:59.329Z,24.5
2017-12-22T10:56:04.818Z,24.6
2017-12-22T10:57:10.322Z,24.7
2017-12-22T10:58:16.060Z,24.6
2017-12-22T10:59:21.545Z,24.5
2017-12-22T11:00:27.470Z,24.6
2017-12-22T11:01:32.984Z,24.4
2017-12-22T11:02:37.897Z,24.5
2017-12-22T11:03:43.089Z,24.5
2017-12-22T11:04:48.583Z,24.6
2017-12-22T11:05:54.066Z,24.5
2017-12-22T11:06:59.515Z,24.5
2017-12-22T11:08:05.186Z,24.5
2017-12-22T11:09:10.379Z,24.5
2017-12-22T11:10:16.190Z,24.6
2017-12-22T11:11:21.375Z,24.6
2017-12-22T11:12:27.246Z,24.6
2017-12-22T11:13:32.827Z,24.4
2017-12-22T11:14:38.345Z,24.6
2017-12-22T11:15:43.541Z,24.6
2017-12-22T11:16:49.043Z,24.4
2017-12-22T11:17:54.561Z,24.5
2017-12-22T11:19:00.336Z,24.6
2017-12-22T11:20:05.827Z,24.6
2017-12-22T11:21:11.033Z,24.6
2017-12-22T11:22:16.563Z,24.6
2017-12-22T11:23:21.738Z,24.6
2017-12-22T11:24:27.720Z,24.4
2017-12-22T11:25:33.239Z,24.3
2017-12-22T11:26:38.932Z,24.4
2017-12-22T11:27:44.656Z,24.4
2017-12-22T11:28:50.139Z,24.5
2017-12-22T11:29:55.383Z,24.5
2017-12-22T11:31:00.821Z,24.5
2017-12-22T11:32:06.035Z,24.5
2017-12-22T11:33:11.539Z,24.4
2017-12-22T11:34:17.076Z,24.4
2017-12-22T11:35:22.587Z,24.3
2017-12-22T11:36:28.542Z,24.3
2017-12-22T11:37:34.037Z,24.1
2017-12-22T11:38:39.023Z,24
2017-12-22T11:39:44.849Z,23.9
2017-12-22T11:40:50.333Z,23.8
2017-12-22T11:41:55.801Z,23.7
2017-12-22T11:43:01.280Z,23.7
2017-12-22T11:44:06.783Z,23.6
2017-12-22T11:45:12.242Z,23.6
2017-12-22T11:46:18.067Z,23.5
2017-12-22T11:47:23.695Z,23.5
2017-12-22T11:48:29.585Z,23.5
2017-12-22T11:49:34.513Z,23.5
2017-12-22T11:50:40.016Z,23.4
2017-12-22T11:51:45.769Z,23.4
2017-12-22T11:52:50.963Z,23.4
2017-12-22T11:53:56.443Z,23.3
2017-12-22T11:55:02.283Z,23.3
2017-12-22T11:56:07.189Z,23.3
2017-12-22T11:57:12.858Z,23.3
2017-12-22T11:58:18.016Z,23.2
2017-12-22T11:59:23.503Z,23.2
2017-12-22T12:00:29.332Z,23.2
2017-12-22T12:01:34.804Z,23.2
2017-12-22T12:02:40.016Z,23.2
2017-12-22T12:03:45.756Z,23.1
2017-12-22T12:04:51.588Z,23.1
2017-12-22T12:05:56.511Z,23.1
2017-12-22T12:07:01.677Z,23.1
2017-12-22T12:08:07.187Z,23.1
2017-12-22T12:09:12.401Z,23.1
2017-12-22T12:10:17.708Z,23
2017-12-22T12:11:22.947Z,23
2017-12-22T12:12:28.680Z,23
2017-12-22T12:13:34.153Z,23
2017-12-22T12:14:39.940Z,23
2017-12-22T12:15:45.780Z,22.9
2017-12-22T12:16:51.270Z,22.9
2017-12-22T12:17:56.750Z,22.9
2017-12-22T12:19:02.487Z,22.9
2017-12-22T12:20:07.976Z,22.9
2017-12-22T12:21:13.464Z,22.9
2017-12-22T12:22:18.894Z,22.9
2017-12-22T12:23:24.300Z,22.8
2017-12-22T12:24:30.031Z,22.8
2017-12-22T12:25:35.509Z,22.8
2017-12-22T12:26:41.022Z,22.7
2017-12-22T12:27:46.577Z,22.7
2017-12-22T12:28:51.796Z,22.7
2017-12-22T12:29:57.289Z,22.6
2017-12-22T12:31:03.104Z,22.6
2017-12-22T12:32:08.630Z,22.6
2017-12-22T12:33:14.080Z,22.6
2017-12-22T12:34:19.815Z,22.6
2017-12-22T12:35:24.709Z,22.5
2017-12-22T12:36:30.285Z,22.5
2017-12-22T12:37:35.529Z,22.5
2017-12-22T12:38:41.037Z,22.4
2017-12-22T12:39:46.780Z,22.4
2017-12-22T12:40:52.272Z,22.4
2017-12-22T12:41:57.448Z,22.4
2017-12-22T12:43:03.196Z,22.5
2017-12-22T12:44:08.842Z,22.4
2017-12-22T12:45:13.775Z,22.4
2017-12-22T12:46:19.221Z,22.4
2017-12-22T12:47:24.688Z,22.4
2017-12-22T12:48:30.185Z,22.3
2017-12-22T12:49:35.732Z,22.3
2017-12-22T12:50:41.222Z,22.2
2017-12-22T12:51:46.972Z,22.3
2017-12-22T12:52:52.165Z,22.2
2017-12-22T12:53:57.388Z,22.2
2017-12-22T12:55:03.107Z,22.2
2017-12-22T12:56:08.615Z,22.2
2017-12-22T12:57:14.091Z,22.1
2017-12-22T12:58:19.913Z,22.2
2017-12-22T12:59:25.377Z,22.1
2017-12-22T13:00:30.764Z,22.1
2017-12-22T13:01:36.249Z,22.1
2017-12-22T13:02:41.756Z,22.1
2017-12-22T13:03:47.591Z,22.1
2017-12-22T13:04:53.172Z,22.1
2017-12-22T13:05:58.363Z,22.1
2017-12-22T13:07:04.552Z,22.1
2017-12-22T13:08:09.761Z,22.2
2017-12-22T13:09:14.952Z,22.1
2017-12-22T13:10:20.685Z,22.2
2017-12-22T13:11:25.952Z,22.2
2017-12-22T13:12:31.441Z,22.2
2017-12-22T13:13:37.096Z,22.2
2017-12-22T13:14:42.591Z,22.2
2017-12-22T13:15:48.578Z,22.3
2017-12-22T13:16:54.072Z,22.2
2017-12-22T13:17:59.552Z,22.2
2017-12-22T13:19:05.285Z,22.2
2017-12-22T13:20:10.207Z,22.2
2017-12-22T13:21:15.131Z,22.2
2017-12-22T13:22:20.772Z,22.2
2017-12-22T13:23:26.251Z,22.2
2017-12-22T13:24:32.001Z,22.2
2017-12-22T13:25:37.495Z,22.1
2017-12-22T13:26:42.396Z,22.1
2017-12-22T13:27:48.204Z,22.2
2017-12-22T13:28:53.736Z,22.1
2017-12-22T13:29:58.923Z,22.2
2017-12-22T13:31:04.499Z,22.2
2017-12-22T13:32:09.716Z,22.2
2017-12-22T13:33:14.823Z,22.2
2017-12-22T13:34:20.585Z,22.2
2017-12-22T13:35:25.786Z,22.2
2017-12-22T13:36:31.526Z,22.2
2017-12-22T13:37:36.909Z,22.2
2017-12-22T13:38:42.397Z,22.2
2017-12-22T13:39:48.187Z,22.2
2017-12-22T13:40:53.656Z,22.2
2017-12-22T13:41:58.918Z,22.2
2017-12-22T13:43:04.749Z,22.2
2017-12-22T13:44:09.945Z,22.2
2017-12-22T13:45:15.450Z,22.1
2017-12-22T13:46:20.885Z,22.1
2017-12-22T13:47:26.424Z,22.1
2017-12-22T13:48:32.086Z,22.1
2017-12-22T13:49:37.556Z,22.1
2017-12-22T13:50:42.980Z,22.1
2017-12-22T13:51:48.722Z,22.1
2017-12-22T13:52:53.631Z,22.1
2017-12-22T13:53:59.118Z,22.1
2017-12-22T13:55:04.865Z,22.1
2017-12-22T13:56:10.367Z,22.1
2017-12-22T13:57:15.572Z,22.1
2017-12-22T13:58:21.411Z,22.1
2017-12-22T13:59:26.917Z,22.1
2017-12-22T14:00:32.640Z,22.1
2017-12-22T14:01:37.826Z,22.1
2017-12-22T14:02:42.461Z,22.1
2017-12-22T14:03:48.264Z,22.1
2017-12-22T14:04:53.723Z,22
2017-12-22T14:05:59.209Z,22.1
2017-12-22T14:07:04.998Z,22.1
2017-12-22T14:08:09.917Z,22
2017-12-22T14:09:15.265Z,22
2017-12-22T14:10:20.826Z,22
2017-12-22T14:11:26.516Z,22
2017-12-22T14:12:32.428Z,22
2017-12-22T14:13:37.900Z,22.1
2017-12-22T14:14:43.372Z,22
2017-12-22T14:15:48.807Z,22
2017-12-22T14:16:54.301Z,22
2017-12-22T14:17:59.806Z,22
2017-12-22T14:19:05.720Z,22
2017-12-22T14:20:11.209Z,22
2017-12-22T14:21:16.117Z,22
2017-12-22T14:22:21.846Z,22
2017-12-22T14:23:27.068Z,22
2017-12-22T14:24:33.093Z,22
2017-12-22T14:25:38.585Z,22
2017-12-22T14:26:44.078Z,22
2017-12-22T14:27:49.796Z,22
2017-12-22T14:28:55.439Z,22
2017-12-22T14:30:00.936Z,21.9
2017-12-22T14:31:06.129Z,21.9
2017-12-22T14:32:11.352Z,21.9
2017-12-22T14:33:16.771Z,22
2017-12-22T14:34:22.215Z,22
2017-12-22T14:35:27.414Z,21.9
2017-12-22T14:36:33.333Z,21.9
2017-12-22T14:37:38.880Z,21.9
2017-12-22T14:38:44.375Z,21.9
2017-12-22T14:39:49.622Z,22
2017-12-22T14:40:55.089Z,21.9
2017-12-22T14:42:00.579Z,21.9
2017-12-22T14:43:05.716Z,21.9
2017-12-22T14:44:11.191Z,21.9
2017-12-22T14:45:16.669Z,21.9
2017-12-22T14:46:22.408Z,21.9
2017-12-22T14:47:27.359Z,21.9
2017-12-22T14:48:32.865Z,21.9
2017-12-22T14:49:38.047Z,21.9
2017-12-22T14:50:43.226Z,21.9
2017-12-22T14:51:48.771Z,21.9
2017-12-22T14:52:54.257Z,21.9
2017-12-22T14:53:59.733Z,21.9
2017-12-22T14:55:05.297Z,21.9
2017-12-22T14:56:10.722Z,21.9
2017-12-22T14:57:16.000Z,21.9
2017-12-22T14:58:21.376Z,21.9
2017-12-22T14:59:26.586Z,21.9
2017-12-22T15:00:32.126Z,21.9
2017-12-22T15:01:37.609Z,21.9
2017-12-22T15:02:43.096Z,21.9
2017-12-22T15:03:48.838Z,21.9
2017-12-22T15:04:54.305Z,21.9
2017-12-22T15:05:59.778Z,21.9
2017-12-22T15:07:05.548Z,21.9
2017-12-22T15:08:10.732Z,21.9
2017-12-22T15:09:16.352Z,21.9
2017-12-22T15:10:22.006Z,21.9
2017-12-22T15:11:27.536Z,21.9
2017-12-22T15:12:33.732Z,21.9
2017-12-22T15:13:38.957Z,21.9
2017-12-22T15:14:44.457Z,21.9
2017-12-22T15:15:49.895Z,21.9
2017-12-22T15:16:55.398Z,21.9
2017-12-22T15:18:00.885Z,21.9
2017-12-22T15:19:06.795Z,21.9
2017-12-22T15:20:11.722Z,21.9
2017-12-22T15:21:16.920Z,21.9
2017-12-22T15:22:22.649Z,21.9
2017-12-22T15:23:28.137Z,21.8
2017-12-22T15:24:33.872Z,21.8
2017-12-22T15:25:39.335Z,21.9
2017-12-22T15:26:44.818Z,21.8
2017-12-22T15:27:50.542Z,21.8
2017-12-22T15:28:56.012Z,21.9
2017-12-22T15:30:00.657Z,21.9
2017-12-22T15:31:06.121Z,21.9
2017-12-22T15:32:11.683Z,21.9
2017-12-22T15:33:17.127Z,21.9
2017-12-22T15:34:22.853Z,21.9
2017-12-22T15:35:28.325Z,21.9
2017-12-22T15:36:33.748Z,21.8
2017-12-22T15:37:39.276Z,21.8
2017-12-22T15:38:45.110Z,21.8
2017-12-22T15:39:51.267Z,21.8
2017-12-22T15:40:56.745Z,21.8
2017-12-22T15:42:02.240Z,21.8
2017-12-22T15:43:07.975Z,21.8
2017-12-22T15:44:13.475Z,21.9
2017-12-22T15:45:18.948Z,21.8
2017-12-22T15:46:39.354Z,21.9
2017-12-22T15:47:44.853Z,21.9
2017-12-22T15:48:50.580Z,21.9
2017-12-22T15:49:56.078Z,21.8
2017-12-22T15:51:01.311Z,21.8
2017-12-22T15:52:07.121Z,21.8
2017-12-22T15:53:12.653Z,21.8
2017-12-22T15:54:18.202Z,21.8
2017-12-22T15:55:24.049Z,21.8
2017-12-22T15:56:29.515Z,21.8
2017-12-22T15:57:35.827Z,21.8
2017-12-22T15:58:40.738Z,21.8
2017-12-22T15:59:45.910Z,21.8
2017-12-22T16:00:51.767Z,21.8
2017-12-22T16:01:56.967Z,21.8
2017-12-22T16:03:02.447Z,21.8
2017-12-22T16:04:08.345Z,21.8
2017-12-22T16:05:13.655Z,21.8
2017-12-22T16:06:19.146Z,21.7
2017-12-22T16:07:25.451Z,21.7
2017-12-22T16:08:30.629Z,21.7
2017-12-22T16:09:36.451Z,21.7
2017-12-22T16:10:41.644Z,21.7
2017-12-22T16:11:47.255Z,21.7
2017-12-22T16:12:53.005Z,21.7
2017-12-22T16:13:58.473Z,21.8
2017-12-22T16:15:03.947Z,21.8
2017-12-22T16:16:09.699Z,21.8
2017-12-22T16:17:14.896Z,21.8
2017-12-22T16:18:20.387Z,21.8
2017-12-22T16:19:26.157Z,21.8
2017-12-22T16:20:31.346Z,21.8
2017-12-22T16:21:37.235Z,21.8
2017-12-22T16:22:42.714Z,21.8
2017-12-22T16:23:47.892Z,21.8
2017-12-22T16:24:53.146Z,21.8
2017-12-22T16:25:58.339Z,21.8
2017-12-22T16:27:03.803Z,21.8
2017-12-22T16:28:09.686Z,21.8
2017-12-22T16:29:15.188Z,21.8
2017-12-22T16:30:20.687Z,21.8
2017-12-22T16:31:26.428Z,21.9
2017-12-22T16:32:31.895Z,21.9
2017-12-22T16:33:37.735Z,21.9
2017-12-22T16:34:42.945Z,21.9
2017-12-22T16:35:47.872Z,21.9
2017-12-22T16:36:53.434Z,21.9
2017-12-22T16:37:58.895Z,21.9
2017-12-22T16:39:04.403Z,21.9
2017-12-22T16:40:09.863Z,21.9
2017-12-22T16:41:15.552Z,21.9
2017-12-22T16:42:21.018Z,21.9
2017-12-22T16:43:26.471Z,21.9
2017-12-22T16:44:31.978Z,21.9
2017-12-22T16:45:37.723Z,21.9
2017-12-22T16:46:42.922Z,21.9
2017-12-22T16:47:47.827Z,21.9
2017-12-22T16:48:53.563Z,21.9
2017-12-22T16:49:58.771Z,21.9
2017-12-22T16:51:03.700Z,21.9
2017-12-22T16:52:09.128Z,21.9
2017-12-22T16:53:14.343Z,21.9
2017-12-22T16:54:19.830Z,21.9
2017-12-22T16:55:25.700Z,21.9
2017-12-22T16:56:31.192Z,21.9
2017-12-22T16:57:37.362Z,21.9
2017-12-22T16:58:42.839Z,21.9
2017-12-22T16:59:48.309Z,21.9
2017-12-22T17:00:54.056Z,21.9
2017-12-22T17:01:59.511Z,22
2017-12-22T17:03:04.970Z,21.9
2017-12-22T17:04:10.798Z,21.9
2017-12-22T17:05:16.023Z,22
2017-12-22T17:06:20.693Z,22
2017-12-22T17:07:26.575Z,22
2017-12-22T17:08:31.784Z,22
2017-12-22T17:09:37.453Z,22
2017-12-22T17:10:42.938Z,22
2017-12-22T17:11:48.433Z,22
2017-12-22T17:12:54.029Z,22
2017-12-22T17:13:58.950Z,22
2017-12-22T17:15:04.435Z,22
2017-12-22T17:16:09.929Z,22
2017-12-22T17:17:15.485Z,22
2017-12-22T17:18:20.401Z,22
2017-12-22T17:19:26.164Z,22
2017-12-22T17:20:31.624Z,22
2017-12-22T17:21:37.362Z,22
2017-12-22T17:22:42.865Z,22
2017-12-22T17:23:48.337Z,22
2017-12-22T17:24:53.805Z,22
2017-12-22T17:25:59.279Z,22
2017-12-22T17:27:04.487Z,22
2017-12-22T17:28:10.506Z,22
2017-12-22T17:29:15.957Z,22
2017-12-22T17:30:21.146Z,22
2017-12-22T17:31:27.396Z,22
2017-12-22T17:32:32.589Z,22
2017-12-22T17:33:38.034Z,22
2017-12-22T17:34:43.245Z,22
2017-12-22T17:35:48.908Z,22
2017-12-22T17:36:54.868Z,22.1
2017-12-22T17:38:00.341Z,22
2017-12-22T17:39:05.528Z,22
2017-12-22T17:40:11.356Z,22
2017-12-22T17:41:16.825Z,22
2017-12-22T17:42:22.313Z,22
2017-12-22T17:43:42.804Z,22
2017-12-22T17:44:48.027Z,22
2017-12-22T17:45:54.063Z,22.1
2017-12-22T17:46:59.556Z,22.1
2017-12-22T17:48:04.733Z,22.1
2017-12-22T17:49:10.535Z,22.1
2017-12-22T17:50:15.731Z,22.1
2017-12-22T17:51:21.213Z,22.1
2017-12-22T17:52:27.493Z,22.1
2017-12-22T17:53:32.971Z,22.1
2017-12-22T17:54:38.692Z,22.1
2017-12-22T17:55:44.190Z,22.1
2017-12-22T17:56:49.667Z,22.1
2017-12-22T17:57:55.549Z,22.1
2017-12-22T17:59:01.044Z,22.1
2017-12-22T18:00:06.234Z,22.1
2017-12-22T18:01:11.382Z,22.1
2017-12-22T18:02:16.841Z,22.1
2017-12-22T18:03:22.319Z,22.1
2017-12-22T18:04:28.906Z,22.1
2017-12-22T18:05:34.395Z,22.1
2017-12-22T18:06:39.434Z,22.1
2017-12-22T18:07:44.912Z,22.1
2017-12-22T18:08:50.555Z,22.1
2017-12-22T18:09:56.290Z,22.1
2017-12-22T18:11:01.519Z,22.1
2017-12-22T18:12:07.047Z,22.1
2017-12-22T18:13:12.495Z,22.1
2017-12-22T18:14:17.997Z,22.1
2017-12-22T18:15:23.511Z,22.1
2017-12-22T18:16:29.835Z,22.1
2017-12-22T18:17:35.015Z,22.1
2017-12-22T18:18:40.963Z,22.1
2017-12-22T18:19:46.445Z,22.1
2017-12-22T18:20:51.927Z,22.2
2017-12-22T18:21:57.810Z,22.1
2017-12-22T18:23:02.734Z,22.1
2017-12-22T18:24:08.220Z,22.1
2017-12-22T18:25:13.864Z,22.1
2017-12-22T18:26:19.341Z,22.1
2017-12-22T18:28:45.282Z,22.1
2017-12-22T18:29:50.752Z,22.1
2017-12-22T18:30:56.579Z,22.1
2017-12-22T18:32:02.064Z,22.1
2017-12-22T18:33:07.578Z,22.1
2017-12-22T18:34:13.188Z,22.1
2017-12-22T18:35:18.393Z,22.1
2017-12-22T18:36:23.877Z,22.1
2017-12-22T18:37:29.784Z,22.1
2017-12-22T18:38:34.672Z,22.1
2017-12-22T18:39:40.427Z,22.2
2017-12-22T18:40:45.917Z,22.2
2017-12-22T18:41:51.378Z,22.1
2017-12-22T18:42:57.215Z,22.1
2017-12-22T18:44:02.695Z,22.2
2017-12-22T18:45:07.345Z,22.2
2017-12-22T18:46:12.898Z,22.2
2017-12-22T18:47:18.393Z,22.2
2017-12-22T18:48:24.563Z,22.2
2017-12-22T18:49:30.537Z,22.2
2017-12-22T18:50:36.010Z,22.2
2017-12-22T18:51:41.210Z,22.2
2017-12-22T18:52:46.386Z,22.2
2017-12-22T18:53:51.639Z,22.2
2017-12-22T18:54:57.406Z,22.2
2017-12-22T18:56:02.913Z,22.2
2017-12-22T18:57:08.088Z,22.2
2017-12-22T18:58:14.191Z,22.2
2017-12-22T18:59:19.897Z,22.2
2017-12-22T19:00:25.870Z,22.2
2017-12-22T19:01:31.366Z,22.2
2017-12-22T19:02:36.842Z,22.1
2017-12-22T19:03:42.501Z,22.2
2017-12-22T19:04:47.979Z,22.2
2017-12-22T19:05:53.476Z,22.2
2017-12-22T19:06:59.248Z,22.2
2017-12-22T19:08:04.726Z,22.1
2017-12-22T19:09:09.931Z,22.1
2017-12-22T19:10:15.503Z,22.1
2017-12-22T19:11:20.981Z,22.1
2017-12-22T19:12:26.996Z,22.1
2017-12-22T19:13:32.472Z,22.1
2017-12-22T19:14:37.661Z,22.2
2017-12-22T19:15:43.109Z,22.2
2017-12-22T19:16:48.641Z,22.2
2017-12-22T19:17:54.115Z,22.2
2017-12-22T19:18:59.852Z,22.2
2017-12-22T19:20:05.089Z,22.2
2017-12-22T19:21:10.042Z,22.1
2017-12-22T19:22:15.799Z,22.2
2017-12-22T19:23:20.736Z,22.2
2017-12-22T19:24:26.477Z,22.1
2017-12-22T19:25:31.665Z,22.2
2017-12-22T19:26:37.129Z,22.2
2017-12-22T19:27:43.229Z,22.2
2017-12-22T19:28:48.728Z,22.2
2017-12-22T19:29:53.950Z,22.1
2017-12-22T19:30:59.115Z,22.2
2017-12-22T19:32:04.599Z,22.2
2017-12-22T19:33:10.078Z,22.2
2017-12-22T19:34:15.521Z,22.2
2017-12-22T19:35:21.017Z,22.2
2017-12-22T19:36:26.916Z,22.2
2017-12-22T19:37:32.399Z,22.2
2017-12-22T19:38:37.893Z,22.1
2017-12-22T19:39:43.717Z,22.1
2017-12-22T19:40:48.908Z,22.2
2017-12-22T19:41:54.386Z,22.2
2017-12-22T19:43:00.262Z,22.2
2017-12-22T19:44:05.443Z,22.2
2017-12-22T19:45:10.347Z,22.2
2017-12-22T19:46:15.558Z,22.2
2017-12-22T19:47:21.023Z,22.2
2017-12-22T19:48:26.844Z,22.2
2017-12-22T19:49:32.051Z,22.2
2017-12-22T19:50:37.555Z,22.2
2017-12-22T19:51:43.495Z,22.2
2017-12-22T19:52:48.969Z,22.2
2017-12-22T19:53:54.147Z,22.2
2017-12-22T19:54:59.854Z,22.2
2017-12-22T19:56:05.357Z,22.2
2017-12-22T19:57:10.568Z,22.2
2017-12-22T19:58:16.336Z,22.2
2017-12-22T19:59:21.839Z,22.2
2017-12-22T20:00:27.038Z,22.2
2017-12-22T20:01:32.267Z,22.2
2017-12-22T20:02:37.792Z,22.2
2017-12-22T20:03:43.420Z,22.2
2017-12-22T20:04:48.952Z,22.2
2017-12-22T20:05:54.199Z,22.2
2017-12-22T20:06:59.943Z,22.2
2017-12-22T20:08:04.830Z,22.2
2017-12-22T20:09:10.029Z,22.2
2017-12-22T20:10:15.815Z,22.2
2017-12-22T20:11:20.747Z,22.2
2017-12-22T20:12:26.583Z,22.2
2017-12-22T20:13:31.801Z,22.2
2017-12-22T20:14:37.033Z,22.2
2017-12-22T20:15:42.609Z,22.2
2017-12-22T20:16:48.095Z,22.2
2017-12-22T20:17:53.281Z,22.2
2017-12-22T20:18:59.223Z,22.2
2017-12-22T20:20:04.713Z,22.2
2017-12-22T20:21:09.906Z,22.2
2017-12-22T20:22:15.747Z,22.2
2017-12-22T20:23:21.393Z,22.2
2017-12-22T20:24:27.457Z,22.2
2017-12-22T20:25:32.940Z,22.2
2017-12-22T20:26:38.401Z,22.2
2017-12-22T20:27:44.137Z,22.2
2017-12-22T20:28:49.621Z,22.2
2017-12-22T20:29:55.100Z,22.2
2017-12-22T20:31:00.585Z,22.2
2017-12-22T20:32:06.066Z,22.2
2017-12-22T20:33:11.510Z,22.2
2017-12-22T20:34:17.344Z,22.2
2017-12-22T20:35:22.829Z,22.2
2017-12-22T20:36:28.431Z,22.2
2017-12-22T20:37:34.127Z,22.2
2017-12-22T20:38:39.607Z,22.2
2017-12-22T20:39:45.544Z,22.2
2017-12-22T20:40:50.726Z,22.2
2017-12-22T20:41:56.223Z,22.2
2017-12-22T20:43:01.937Z,22.2
2017-12-22T20:44:07.414Z,22.2
2017-12-22T20:45:12.599Z,22.2
2017-12-22T20:46:17.806Z,22.2
2017-12-22T20:47:23.272Z,22.2
2017-12-22T20:48:29.091Z,22.2
2017-12-22T20:49:34.569Z,22.2
2017-12-22T20:50:40.060Z,22.2
2017-12-22T20:51:45.819Z,22.2
2017-12-22T20:52:51.302Z,22.2
2017-12-22T20:53:56.792Z,22.2
2017-12-22T20:55:02.711Z,22.2
2017-12-22T20:56:07.625Z,22.2
2017-12-22T20:57:12.816Z,22.2
2017-12-22T20:58:18.022Z,22.2
2017-12-22T20:59:23.530Z,22.2
2017-12-22T21:00:28.961Z,22.2
2017-12-22T21:01:34.470Z,22.2
2017-12-22T21:02:39.940Z,22.2
2017-12-22T21:03:45.673Z,22.2
2017-12-22T21:04:50.870Z,22.3
2017-12-22T21:05:56.370Z,22.3
2017-12-22T21:07:02.157Z,22.3
2017-12-22T21:08:07.329Z,22.3
2017-12-22T21:09:12.792Z,22.3
2017-12-22T21:10:18.623Z,22.3
2017-12-22T21:11:24.103Z,22.3
2017-12-22T21:12:29.642Z,22.3
2017-12-22T21:13:35.155Z,22.3
2017-12-22T21:14:40.350Z,22.3
2017-12-22T21:15:46.172Z,22.3
2017-12-22T21:16:51.666Z,22.3
2017-12-22T21:17:56.875Z,22.3
2017-12-22T21:19:02.827Z,22.3
2017-12-22T21:20:08.035Z,22.3
2017-12-22T21:21:13.537Z,22.4
2017-12-22T21:22:19.359Z,22.3
2017-12-22T21:23:24.837Z,22.3
2017-12-22T21:24:30.556Z,22.3
2017-12-22T21:25:35.742Z,22.3
2017-12-22T21:26:40.997Z,22.3
2017-12-22T21:27:46.335Z,22.3
2017-12-22T21:28:51.806Z,22.3
2017-12-22T21:29:56.997Z,22.3
2017-12-22T21:31:02.823Z,22.3
2017-12-22T21:32:07.747Z,22.3
2017-12-22T21:33:13.233Z,22.3
2017-12-22T21:34:18.775Z,22.4
2017-12-22T21:35:23.979Z,22.4
2017-12-22T21:36:29.718Z,22.3
2017-12-22T21:37:35.225Z,22.4
2017-12-22T21:38:40.884Z,22.3
2017-12-22T21:39:46.822Z,22.3
2017-12-22T21:40:52.309Z,22.3
2017-12-22T21:41:57.799Z,22.4
2017-12-22T21:43:03.730Z,22.4
2017-12-22T21:44:09.199Z,22.4
2017-12-22T21:45:14.399Z,22.4
2017-12-22T21:46:19.857Z,22.4
2017-12-22T21:47:25.060Z,22.4
2017-12-22T21:48:30.909Z,22.4
2017-12-22T21:49:36.396Z,22.4
2017-12-22T21:50:41.588Z,22.4
2017-12-22T21:51:47.031Z,22.4
2017-12-22T21:52:52.509Z,22.3
2017-12-22T21:53:58.000Z,22.4
2017-12-22T21:55:03.705Z,22.4
2017-12-22T21:56:09.191Z,22.4
2017-12-22T21:57:14.400Z,22.4
2017-12-22T21:58:20.232Z,22.4
2017-12-22T21:59:25.757Z,22.4
2017-12-22T22:00:31.574Z,22.4